createdAt,value
2022-10-18T00:00:17.099Z,102415.91
2022-10-18T00:02:43.874Z,102420.25
2022-10-18T00:05:10.773Z,102427.31
2022-10-18T00:07:37.797Z,102422.88
2022-10-18T00:10:05.453Z,102420.78
2022-10-18T00:12:34.711Z,102420.59
2022-10-18T00:15:02.006Z,102424.63
2022-10-18T00:17:29.246Z,102422.00
2022-10-18T00:19:56.443Z,102422.00
2022-10-18T00:22:23.332Z,102429.63
2022-10-18T00:24:50.324Z,102423.09
2022-10-18T00:27:17.642Z,102424.81
2022-10-18T00:29:44.422Z,102430.91
2022-10-18T00:32:12.181Z,102429.94
2022-10-18T00:34:40.312Z,102426.22
2022-10-18T00:37:07.422Z,102424.72
2022-10-18T00:39:34.416Z,102432.31
2022-10-18T00:42:01.533Z,102434.66
2022-10-18T00:44:28.296Z,102427.72
2022-10-18T00:47:03.413Z,102431.44
2022-10-18T00:49:34.389Z,102432.84
2022-10-18T00:52:11.824Z,102442.56
2022-10-18T00:54:41.573Z,102430.75
2022-10-18T00:57:08.726Z,102438.34
2022-10-18T00:59:36.789Z,102448.84
2022-10-18T01:02:04.420Z,102437.53
2022-10-18T01:04:31.295Z,102431.84
2022-10-18T01:07:09.056Z,102438.69
2022-10-18T01:09:35.719Z,102441.13
2022-10-18T01:12:40.631Z,102446.16
2022-10-18T01:15:36.167Z,102450.84
2022-10-18T01:18:18.732Z,102449.44
2022-10-18T01:20:51.351Z,102452.88
2022-10-18T01:23:39.757Z,102450.34
2022-10-18T01:26:36.048Z,102435.13
2022-10-18T01:29:17.890Z,102439.75
2022-10-18T01:31:49.736Z,102430.91
2022-10-18T01:34:18.963Z,102430.31
2022-10-18T01:36:52.324Z,102425.31
2022-10-18T01:39:24.551Z,102428.69
2022-10-18T01:41:52.712Z,102434.91
2022-10-18T01:44:23.922Z,102435.31
2022-10-18T01:46:54.309Z,102439.34
2022-10-18T01:49:21.233Z,102443.00
2022-10-18T01:51:48.137Z,102433.91
2022-10-18T01:54:21.744Z,102428.75
2022-10-18T01:57:29.093Z,102435.53
2022-10-18T02:00:06.649Z,102425.88
2022-10-18T02:02:49.362Z,102440.13
2022-10-18T02:05:41.252Z,102436.25
2022-10-18T02:08:23.638Z,102436.63
2022-10-18T02:10:56.891Z,102444.06
2022-10-18T02:13:27.281Z,102443.88
2022-10-18T02:15:59.415Z,102437.94
2022-10-18T02:18:34.404Z,102444.97
2022-10-18T02:21:03.962Z,102437.06
2022-10-18T02:23:32.091Z,102439.75
2022-10-18T02:25:58.889Z,102446.38
2022-10-18T02:28:26.246Z,102459.19
2022-10-18T02:30:59.026Z,102460.00
2022-10-18T02:33:45.396Z,102460.28
2022-10-18T02:36:38.178Z,102457.78
2022-10-18T02:39:16.684Z,102455.78
2022-10-18T02:41:43.892Z,102451.53
2022-10-18T02:44:11.607Z,102445.56
2022-10-18T02:46:39.646Z,102446.94
2022-10-18T02:49:06.425Z,102448.44
2022-10-18T02:51:33.256Z,102447.34
2022-10-18T02:54:00.094Z,102448.75
2022-10-18T02:56:26.856Z,102453.16
2022-10-18T02:58:53.675Z,102452.19
2022-10-18T03:01:20.474Z,102454.97
2022-10-18T03:03:47.322Z,102453.97
2022-10-18T03:06:14.181Z,102455.25
2022-10-18T03:08:40.945Z,102456.97
2022-10-18T03:11:08.251Z,102455.28
2022-10-18T03:13:35.102Z,102456.97
2022-10-18T03:16:02.234Z,102457.38
2022-10-18T03:18:29.089Z,102462.19
2022-10-18T03:20:55.915Z,102461.38
2022-10-18T03:23:22.725Z,102459.69
2022-10-18T03:25:49.726Z,102460.47
2022-10-18T03:28:16.665Z,102458.69
2022-10-18T03:30:43.440Z,102451.16
2022-10-18T03:33:10.213Z,102451.88
2022-10-18T03:35:37.073Z,102449.94
2022-10-18T03:38:03.929Z,102455.75
2022-10-18T03:42:57.786Z,102467.09
2022-10-18T03:45:28.945Z,102465.59
2022-10-18T03:47:58.045Z,102472.31
2022-10-18T03:50:24.840Z,102471.41
2022-10-18T03:52:51.630Z,102468.38
2022-10-18T03:55:18.393Z,102454.34
2022-10-18T03:57:45.249Z,102449.25
2022-10-18T04:00:13.227Z,102467.50
2022-10-18T04:02:41.355Z,102464.91
2022-10-18T04:05:08.944Z,102470.81
2022-10-18T04:10:04.308Z,102470.66
2022-10-18T04:12:31.379Z,102469.69
2022-10-18T04:14:58.434Z,102465.97
2022-10-18T04:17:25.408Z,102466.72
2022-10-18T04:19:52.164Z,102467.63
2022-10-18T04:22:18.966Z,102463.50
2022-10-18T04:24:45.753Z,102468.84
2022-10-18T04:27:12.539Z,102467.44
2022-10-18T04:29:39.445Z,102469.63
2022-10-18T04:32:06.361Z,102465.03
2022-10-18T04:34:33.270Z,102467.50
2022-10-18T04:37:00.182Z,102474.53
2022-10-18T04:39:27.026Z,102487.53
2022-10-18T04:41:53.763Z,102493.81
2022-10-18T04:44:20.519Z,102486.31
2022-10-18T04:46:47.367Z,102481.59
2022-10-18T04:49:14.495Z,102485.22
2022-10-18T04:51:41.318Z,102489.75
2022-10-18T04:54:08.257Z,102485.22
2022-10-18T04:56:35.008Z,102490.25
2022-10-18T04:59:01.766Z,102494.97
2022-10-18T05:01:28.680Z,102486.72
2022-10-18T05:03:55.481Z,102486.97
2022-10-18T05:06:22.998Z,102482.69
2022-10-18T05:08:50.110Z,102471.34
2022-10-18T05:11:17.127Z,102475.91
2022-10-18T05:13:46.047Z,102474.31
2022-10-18T05:16:16.056Z,102480.09
2022-10-18T05:18:43.394Z,102481.53
2022-10-18T05:21:10.899Z,102477.06
2022-10-18T05:23:37.774Z,102468.38
2022-10-18T05:26:06.566Z,102469.06
2022-10-18T05:28:39.193Z,102469.84
2022-10-18T05:31:09.197Z,102465.00
2022-10-18T05:33:36.547Z,102468.94
2022-10-18T05:36:04.141Z,102476.91
2022-10-18T05:38:31.421Z,102483.94
2022-10-18T05:40:59.074Z,102480.72
2022-10-18T05:43:29.452Z,102479.47
2022-10-18T05:45:56.352Z,102485.31
2022-10-18T05:48:23.255Z,102494.06
2022-10-18T05:50:50.236Z,102494.72
2022-10-18T05:53:36.597Z,102486.00
2022-10-18T05:56:04.292Z,102475.25
2022-10-18T05:58:31.160Z,102480.72
2022-10-18T06:01:02.317Z,102490.50
2022-10-18T06:03:30.862Z,102486.84
2022-10-18T06:06:07.185Z,102480.63
2022-10-18T06:08:35.335Z,102484.00
2022-10-18T06:11:09.911Z,102487.16
2022-10-18T06:13:47.886Z,102490.00
2022-10-18T06:16:16.929Z,102500.28
2022-10-18T06:18:47.118Z,102489.22
2022-10-18T06:21:13.896Z,102494.47
2022-10-18T06:23:40.986Z,102502.13
2022-10-18T06:26:10.131Z,102489.69
2022-10-18T06:28:38.591Z,102507.13
2022-10-18T06:31:06.687Z,102529.00
2022-10-18T06:33:35.206Z,102533.09
2022-10-18T06:36:07.378Z,102539.97
2022-10-18T06:38:35.256Z,102538.50
2022-10-18T06:41:04.198Z,102526.25
2022-10-18T06:43:30.963Z,102531.81
2022-10-18T06:45:57.809Z,102537.84
2022-10-18T06:48:24.704Z,102547.88
2022-10-18T06:51:00.154Z,102544.81
2022-10-18T06:53:30.492Z,102551.91
2022-10-18T06:56:19.462Z,102554.66
2022-10-18T06:58:46.306Z,102543.22
2022-10-18T07:01:16.157Z,102550.81
2022-10-18T07:03:44.338Z,102570.94
2022-10-18T07:06:13.053Z,102573.28
2022-10-18T07:08:40.755Z,102551.34
2022-10-18T07:11:08.673Z,102556.03
2022-10-18T07:13:35.501Z,102570.84
2022-10-18T07:16:18.170Z,102574.69
2022-10-18T07:18:50.708Z,102567.16
2022-10-18T07:21:22.765Z,102575.41
2022-10-18T07:23:50.968Z,102576.50
2022-10-18T07:26:33.089Z,102568.69
2022-10-18T07:29:05.267Z,102561.53
2022-10-18T07:31:33.371Z,102575.41
2022-10-18T07:34:00.525Z,102592.47
2022-10-18T07:36:27.334Z,102589.47
2022-10-18T07:38:54.438Z,102589.88
2022-10-18T07:41:22.095Z,102591.91
2022-10-18T07:43:51.064Z,102611.59
2022-10-18T07:46:19.355Z,102600.88
2022-10-18T07:48:46.136Z,102596.94
2022-10-18T07:51:13.756Z,102601.22
2022-10-18T07:53:40.793Z,102605.75
2022-10-18T07:56:16.728Z,102605.91
2022-10-18T07:58:45.243Z,102608.88
2022-10-18T08:01:13.107Z,102616.09
2022-10-18T08:03:41.232Z,102610.66
2022-10-18T08:06:10.909Z,102619.75
2022-10-18T08:08:39.380Z,102613.31
2022-10-18T08:11:09.422Z,102615.97
2022-10-18T08:13:36.770Z,102614.34
2022-10-18T08:16:06.234Z,102613.09
2022-10-18T08:18:33.124Z,102614.06
2022-10-18T08:21:05.314Z,102616.34
2022-10-18T08:23:32.501Z,102631.34
2022-10-18T08:26:06.890Z,102615.66
2022-10-18T08:28:36.810Z,102621.75
2022-10-18T08:31:10.397Z,102634.25
2022-10-18T08:33:38.606Z,102640.31
2022-10-18T08:36:08.141Z,102634.53
2022-10-18T08:38:36.207Z,102642.63
2022-10-18T08:41:38.083Z,102641.19
2022-10-18T08:44:07.922Z,102647.41
2022-10-18T08:46:37.338Z,102653.81
2022-10-18T08:49:05.693Z,102638.25
2022-10-18T08:51:46.557Z,102635.16
2022-10-18T08:54:29.268Z,102642.44
2022-10-18T08:57:04.442Z,102639.97
2022-10-18T08:59:38.154Z,102636.47
2022-10-18T09:02:16.460Z,102642.31
2022-10-18T09:05:09.161Z,102633.38
2022-10-18T09:08:03.380Z,102638.81
2022-10-18T09:10:45.852Z,102634.53
2022-10-18T09:13:32.589Z,102632.69
2022-10-18T09:16:06.125Z,102637.66
2022-10-18T09:18:51.610Z,102636.78
2022-10-18T09:21:27.393Z,102640.47
2022-10-18T09:24:12.061Z,102638.31
2022-10-18T09:26:47.889Z,102646.50
2022-10-18T09:29:40.265Z,102644.75
2022-10-18T09:32:25.526Z,102653.72
2022-10-18T09:35:18.528Z,102657.88
2022-10-18T09:37:46.179Z,102652.22
2022-10-18T09:40:22.767Z,102653.53
2022-10-18T09:43:08.246Z,102656.09
2022-10-18T09:45:39.586Z,102653.94
2022-10-18T09:48:22.729Z,102663.91
2022-10-18T09:50:59.183Z,102665.75
2022-10-18T09:53:36.947Z,102670.84
2022-10-18T09:56:08.778Z,102672.09
2022-10-18T09:58:44.244Z,102680.63
2022-10-18T10:01:15.585Z,102673.59
2022-10-18T10:03:42.879Z,102682.13
2022-10-18T10:06:12.708Z,102686.97
2022-10-18T10:08:53.714Z,102690.47
2022-10-18T10:11:40.178Z,102687.16
2022-10-18T10:14:27.963Z,102684.94
2022-10-18T10:16:56.692Z,102694.38
2022-10-18T10:19:30.524Z,102694.38
2022-10-18T10:22:02.362Z,102684.94
2022-10-18T10:24:50.494Z,102697.59
2022-10-18T10:27:27.717Z,102701.09
2022-10-18T10:29:58.172Z,102703.41
2022-10-18T10:32:30.133Z,102714.00
2022-10-18T10:34:57.992Z,102712.53
2022-10-18T10:37:34.304Z,102705.06
2022-10-18T10:40:18.304Z,102710.31
2022-10-18T10:43:18.360Z,102705.19
2022-10-18T10:46:07.581Z,102712.56
2022-10-18T10:49:21.011Z,102713.88
2022-10-18T10:52:02.523Z,102728.53
2022-10-18T10:54:50.336Z,102730.75
2022-10-18T10:57:26.181Z,102723.81
2022-10-18T10:59:55.854Z,102724.19
2022-10-18T11:02:29.709Z,102723.47
2022-10-18T11:05:15.180Z,102723.38
2022-10-18T11:07:46.497Z,102722.88
2022-10-18T11:10:21.617Z,102720.47
2022-10-18T11:13:07.809Z,102730.84
2022-10-18T11:15:49.466Z,102727.69
2022-10-18T11:18:31.435Z,102726.59
2022-10-18T11:21:08.250Z,102724.44
2022-10-18T11:23:41.321Z,102723.09
2022-10-18T11:26:11.179Z,102721.28
2022-10-18T11:29:08.690Z,102724.50
2022-10-18T11:31:57.219Z,102725.72
2022-10-18T11:34:39.292Z,102730.56
2022-10-18T11:37:34.653Z,102720.91
2022-10-18T11:40:32.474Z,102728.50
2022-10-18T11:43:05.350Z,102734.78
2022-10-18T11:45:57.036Z,102738.88
2022-10-18T11:48:26.368Z,102735.44
2022-10-18T11:50:59.182Z,102740.59
2022-10-18T11:53:50.983Z,102734.88
2022-10-18T11:56:40.457Z,102728.03
2022-10-18T11:59:13.410Z,102734.34
2022-10-18T12:02:18.252Z,102740.84
2022-10-18T12:05:05.330Z,102743.88
2022-10-18T12:07:57.822Z,102746.34
2022-10-18T12:10:37.917Z,102744.56
2022-10-18T12:13:25.769Z,102742.56
2022-10-18T12:15:53.616Z,102739.25
2022-10-18T12:18:23.352Z,102748.53
2022-10-18T12:20:54.563Z,102751.69
2022-10-18T12:23:38.096Z,102744.53
2022-10-18T12:26:07.930Z,102748.41
2022-10-18T12:28:55.602Z,102748.63
2022-10-18T12:31:33.886Z,102745.13
2022-10-18T12:34:11.400Z,102752.44
2022-10-18T12:36:47.387Z,102744.84
2022-10-18T12:39:45.101Z,102747.34
2022-10-18T12:42:28.671Z,102740.13
2022-10-18T12:45:19.607Z,102742.66
2022-10-18T12:47:49.550Z,102737.28
2022-10-18T12:50:38.280Z,102730.47
2022-10-18T12:53:26.647Z,102732.38
2022-10-18T12:55:55.336Z,102740.66
2022-10-18T12:58:28.525Z,102738.16
2022-10-18T13:01:04.106Z,102734.00
2022-10-18T13:03:40.917Z,102737.72
2022-10-18T13:06:08.053Z,102729.78
2022-10-18T13:08:41.778Z,102735.97
2022-10-18T13:11:08.562Z,102740.19
2022-10-18T13:13:54.426Z,102734.47
2022-10-18T13:16:27.639Z,102751.50
2022-10-18T13:19:03.375Z,102750.59
2022-10-18T13:21:54.293Z,102762.16
2022-10-18T13:24:28.853Z,102759.44
2022-10-18T13:27:24.059Z,102754.22
2022-10-18T13:30:19.477Z,102755.59
2022-10-18T13:33:12.391Z,102752.16
2022-10-18T13:35:55.138Z,102751.13
2022-10-18T13:38:48.437Z,102755.00
2022-10-18T13:41:21.707Z,102762.72
2022-10-18T13:43:52.738Z,102752.38
2022-10-18T13:46:36.295Z,102751.81
2022-10-18T13:49:35.450Z,102745.59
2022-10-18T13:52:21.012Z,102750.34
2022-10-18T13:55:25.184Z,102752.84
2022-10-18T13:58:10.340Z,102758.69
2022-10-18T14:01:01.943Z,102759.31
2022-10-18T14:03:56.731Z,102769.44
2022-10-18T14:06:27.553Z,102767.19
2022-10-18T14:09:03.367Z,102770.53
2022-10-18T14:11:46.281Z,102770.19
2022-10-18T14:14:36.529Z,102764.22
2022-10-18T14:17:25.128Z,102782.31
2022-10-18T14:19:51.973Z,102782.81
2022-10-18T14:23:01.750Z,102777.06
2022-10-18T14:25:32.113Z,102783.72
2022-10-18T14:28:13.606Z,102785.78
2022-10-18T14:31:02.164Z,102793.44
2022-10-18T14:33:39.723Z,102797.03
2022-10-18T14:36:15.640Z,102791.16
2022-10-18T14:38:47.924Z,102797.47
2022-10-18T14:41:20.229Z,102790.50
2022-10-18T14:43:48.327Z,102796.31
2022-10-18T14:46:20.063Z,102793.91
2022-10-18T14:49:00.460Z,102802.88
2022-10-18T14:51:30.303Z,102792.31
2022-10-18T14:53:57.177Z,102792.53
2022-10-18T14:56:30.921Z,102795.56
2022-10-18T14:59:02.572Z,102795.97
2022-10-18T15:01:32.306Z,102798.47
2022-10-18T15:04:04.065Z,102791.19
2022-10-18T15:06:32.889Z,102796.59
2022-10-18T15:09:04.284Z,102787.59
2022-10-18T15:11:31.755Z,102787.28
2022-10-18T15:14:06.921Z,102792.56
2022-10-18T15:16:38.388Z,102789.91
2022-10-18T15:19:23.205Z,102785.31
2022-10-18T15:22:08.061Z,102785.91
2022-10-18T15:24:41.562Z,102793.09
2022-10-18T15:27:21.001Z,102787.72
2022-10-18T15:29:48.073Z,102784.47
2022-10-18T15:32:31.584Z,102782.31
2022-10-18T15:35:25.709Z,102779.28
2022-10-18T15:37:54.445Z,102778.47
2022-10-18T15:40:24.395Z,102787.41
2022-10-18T15:42:56.906Z,102789.75
2022-10-18T15:45:23.690Z,102792.31
2022-10-18T15:48:19.571Z,102786.19
2022-10-18T15:50:50.009Z,102785.69
2022-10-18T15:53:46.039Z,102787.09
2022-10-18T15:56:27.896Z,102791.91
2022-10-18T15:58:59.501Z,102788.41
2022-10-18T16:01:46.671Z,102776.81
2022-10-18T16:04:29.985Z,102779.00
2022-10-18T16:06:58.004Z,102780.50
2022-10-18T16:09:26.792Z,102791.28
2022-10-18T16:11:56.991Z,102785.56
2022-10-18T16:14:25.559Z,102778.03
2022-10-18T16:16:55.587Z,102772.84
2022-10-18T16:19:22.786Z,102774.66
2022-10-18T16:21:51.083Z,102782.03
2022-10-18T16:24:18.372Z,102781.28
2022-10-18T16:26:45.264Z,102778.03
2022-10-18T16:29:18.688Z,102788.06
2022-10-18T16:31:46.777Z,102786.72
2022-10-18T16:34:14.849Z,102791.06
2022-10-18T16:36:41.653Z,102785.75
2022-10-18T16:39:15.462Z,102784.50
2022-10-18T16:41:42.693Z,102784.81
2022-10-18T16:44:09.556Z,102796.00
2022-10-18T16:46:37.093Z,102788.25
2022-10-18T16:49:05.199Z,102791.63
2022-10-18T16:51:32.344Z,102797.19
2022-10-18T16:53:59.185Z,102804.81
2022-10-18T16:56:30.622Z,102804.41
2022-10-18T16:58:58.261Z,102809.72
2022-10-18T17:01:26.315Z,102802.06
2022-10-18T17:03:53.959Z,102814.34
2022-10-18T17:06:33.569Z,102809.78
2022-10-18T17:09:00.467Z,102816.94
2022-10-18T17:11:28.621Z,102813.47
2022-10-18T17:13:55.858Z,102816.88
2022-10-18T17:19:03.700Z,102825.38
2022-10-18T17:21:33.456Z,102823.38
2022-10-18T17:24:04.414Z,102819.41
2022-10-18T17:26:31.816Z,102830.94
2022-10-18T17:29:01.569Z,102824.03
2022-10-18T17:31:29.931Z,102820.09
2022-10-18T17:33:58.431Z,102829.81
2022-10-18T17:36:25.805Z,102837.16
2022-10-18T17:38:53.234Z,102838.31
2022-10-18T17:41:20.971Z,102839.13
2022-10-18T17:43:48.471Z,102844.44
2022-10-18T17:46:16.346Z,102845.22
2022-10-18T17:48:43.301Z,102846.53
2022-10-18T17:51:12.121Z,102837.03
2022-10-18T17:53:39.317Z,102849.50
2022-10-18T17:56:07.700Z,102854.81
2022-10-18T17:58:35.130Z,102848.91
2022-10-18T18:01:14.676Z,102846.00
2022-10-18T18:03:41.978Z,102836.91
2022-10-18T18:06:20.285Z,102850.38
2022-10-18T18:08:48.351Z,102849.94
2022-10-18T18:11:16.709Z,102839.66
2022-10-18T18:13:43.623Z,102856.75
2022-10-18T18:16:30.050Z,102860.47
2022-10-18T18:18:58.393Z,102863.50
2022-10-18T18:21:26.530Z,102850.50
2022-10-18T18:23:53.970Z,102855.47
2022-10-18T18:26:21.384Z,102865.91
2022-10-18T18:28:48.892Z,102873.16
2022-10-18T18:31:18.794Z,102868.06
2022-10-18T18:33:45.734Z,102878.69
2022-10-18T18:36:12.649Z,102880.47
2022-10-18T18:38:42.715Z,102879.06
2022-10-18T18:41:21.963Z,102871.66
2022-10-18T18:43:53.469Z,102864.28
2022-10-18T18:46:21.835Z,102863.41
2022-10-18T18:48:49.167Z,102864.88
2022-10-18T18:51:18.313Z,102867.38
2022-10-18T18:53:46.874Z,102863.25
2022-10-18T18:56:25.545Z,102863.41
2022-10-18T18:58:53.604Z,102866.44
2022-10-18T19:01:23.165Z,102876.41
2022-10-18T19:03:52.773Z,102868.78
2022-10-18T19:06:31.602Z,102869.31
2022-10-18T19:09:02.880Z,102876.78
2022-10-18T19:11:33.167Z,102871.34
2022-10-18T19:14:00.791Z,102864.91
2022-10-18T19:16:38.339Z,102873.66
2022-10-18T19:19:12.688Z,102879.66
2022-10-18T19:21:42.570Z,102872.22
2022-10-18T19:24:09.399Z,102872.41
2022-10-18T19:26:46.101Z,102873.75
2022-10-18T19:29:13.074Z,102877.56
2022-10-18T19:31:40.340Z,102886.06
2022-10-18T19:34:09.435Z,102886.38
2022-10-18T19:36:37.241Z,102881.63
2022-10-18T19:39:06.106Z,102873.34
2022-10-18T19:41:33.031Z,102876.88
2022-10-18T19:43:59.897Z,102877.19
2022-10-18T19:46:26.759Z,102885.84
2022-10-18T19:48:54.292Z,102885.69
2022-10-18T19:51:25.462Z,102885.44
2022-10-18T19:53:55.474Z,102886.69
2022-10-18T19:56:24.009Z,102897.47
2022-10-18T19:58:51.731Z,102898.47
2022-10-18T20:01:19.769Z,102896.69
2022-10-18T20:03:47.452Z,102896.03
2022-10-18T20:06:14.456Z,102893.75
2022-10-18T20:11:12.166Z,102897.13
2022-10-18T20:13:39.940Z,102899.63
2022-10-18T20:16:08.954Z,102896.53
2022-10-18T20:18:36.287Z,102896.00
2022-10-18T20:21:08.055Z,102901.66
2022-10-18T20:23:36.873Z,102899.63
2022-10-18T20:26:20.519Z,102902.78
2022-10-18T20:28:49.374Z,102902.66
2022-10-18T20:31:19.609Z,102904.91
2022-10-18T20:33:48.124Z,102904.50
2022-10-18T20:36:17.203Z,102905.38
2022-10-18T20:38:46.331Z,102902.66
2022-10-18T20:41:17.817Z,102908.38
2022-10-18T20:43:50.267Z,102909.94
2022-10-18T20:46:17.718Z,102910.78
2022-10-18T20:48:44.601Z,102917.16
2022-10-18T20:51:12.833Z,102914.56
2022-10-18T20:53:40.928Z,102914.63
2022-10-18T20:56:14.692Z,102914.06
2022-10-18T20:58:44.244Z,102911.91
2022-10-18T21:01:14.519Z,102913.31
2022-10-18T21:03:43.192Z,102909.25
2022-10-18T21:06:15.478Z,102905.53
2022-10-18T21:08:43.507Z,102898.69
2022-10-18T21:11:11.755Z,102897.88
2022-10-18T21:13:38.680Z,102901.44
2022-10-18T21:16:06.738Z,102902.47
2022-10-18T21:18:35.756Z,102906.28
2022-10-18T21:23:45.785Z,102902.03
2022-10-18T21:26:18.459Z,102900.59
2022-10-18T21:28:45.866Z,102892.88
2022-10-18T21:31:16.111Z,102894.72
2022-10-18T21:33:44.934Z,102892.53
2022-10-18T21:36:14.405Z,102894.44
2022-10-18T21:38:45.705Z,102891.59
2022-10-18T21:41:15.078Z,102894.84
2022-10-18T21:43:44.885Z,102882.97
2022-10-18T21:46:13.596Z,102884.75
2022-10-18T21:48:48.191Z,102878.19
2022-10-18T21:51:17.792Z,102879.19
2022-10-18T21:53:46.647Z,102881.78
2022-10-18T21:56:33.362Z,102887.81
2022-10-18T21:59:00.901Z,102891.97
2022-10-18T22:01:37.150Z,102893.06
2022-10-18T22:04:06.322Z,102902.03
2022-10-18T22:09:06.183Z,102895.97
2022-10-18T22:11:47.712Z,102892.28
2022-10-18T22:14:14.887Z,102892.13
2022-10-18T22:16:41.718Z,102884.91
2022-10-18T22:19:09.228Z,102892.75
2022-10-18T22:21:36.139Z,102897.47
2022-10-18T22:24:08.096Z,102896.72
2022-10-18T22:26:37.666Z,102887.38
2022-10-18T22:29:12.405Z,102886.59
2022-10-18T22:31:42.533Z,102883.03
2022-10-18T22:34:12.876Z,102879.81
2022-10-18T22:36:39.941Z,102882.31
2022-10-18T22:39:07.810Z,102886.59
2022-10-18T22:41:35.390Z,102888.16
2022-10-18T22:44:03.849Z,102881.06
2022-10-18T22:46:32.744Z,102877.34
2022-10-18T22:48:59.814Z,102875.88
2022-10-18T22:51:26.780Z,102875.09
2022-10-18T22:53:53.578Z,102874.28
2022-10-18T22:56:22.715Z,102873.66
2022-10-18T22:58:49.901Z,102875.44
2022-10-18T23:01:19.829Z,102875.69
2022-10-18T23:03:46.815Z,102865.25
2022-10-18T23:06:33.893Z,102867.72
2022-10-18T23:09:05.022Z,102871.91
2022-10-18T23:11:32.338Z,102867.91
2022-10-18T23:13:59.341Z,102859.09
2022-10-18T23:16:26.137Z,102859.38
2022-10-18T23:18:55.774Z,102860.28
2022-10-18T23:21:24.942Z,102859.94
2022-10-18T23:23:52.934Z,102860.81
2022-10-18T23:26:22.026Z,102864.69
2022-10-18T23:28:50.596Z,102869.56
2022-10-18T23:31:20.180Z,102869.50
2022-10-18T23:33:49.304Z,102866.31
2022-10-18T23:36:16.973Z,102871.81
2022-10-18T23:38:44.429Z,102877.75
2022-10-18T23:41:12.641Z,102868.03
2022-10-18T23:43:39.800Z,102873.59
2022-10-18T23:46:06.854Z,102879.66
2022-10-18T23:48:34.312Z,102876.81
2022-10-18T23:51:02.149Z,102873.09
2022-10-18T23:53:29.259Z,102873.91
2022-10-18T23:55:59.027Z,102866.00
2022-10-18T23:58:26.731Z,102879.63
